Time;durP1;ratioP1;P1;durP2;ratioP2;P2;SDS_P1;SDS_P2;PMS_P1;PMS_P2;Temp;Humidity;BMP_temperature;BMP_pressure;BME280_temperature;BME280_humidity;BME280_pressure;Samples;Min_cycle;Max_cycle;Signal;HPM_P1;HPM_P2
2023/04/16 00:00:49;;;;;;;3.70;2.40;;;;;;;4.21;100.00;97330.56;1663278;75;4817388;-70
2023/04/16 00:03:19;;;;;;;2.50;2.30;;;;;;;4.20;100.00;97334.44;1688842;75;1948426;-70
2023/04/16 00:05:54;;;;;;;2.25;2.05;;;;;;;4.28;100.00;97329.53;1711414;75;713711;-72
2023/04/16 00:08:26;;;;;;;1.60;1.50;;;;;;;4.29;100.00;97339.19;1702602;75;766529;-70
2023/04/16 00:10:56;;;;;;;3.10;2.70;;;;;;;3.98;100.00;97336.38;1711341;75;694859;-71
2023/04/16 00:13:29;;;;;;;6.55;4.05;;;;;;;3.87;100.00;97342.16;1702643;75;745807;-72
2023/04/16 00:15:59;;;;;;;5.70;5.10;;;;;;;3.62;100.00;97356.53;1673885;75;3889016;-70
2023/04/16 00:18:30;;;;;;;4.95;4.25;;;;;;;3.76;100.00;97352.59;1688952;75;1883518;-70
2023/04/16 00:21:01;;;;;;;5.95;4.90;;;;;;;3.54;100.00;97347.13;1711893;75;676541;-72
2023/04/16 00:23:31;;;;;;;5.45;4.50;;;;;;;3.42;100.00;97352.13;1702904;75;784538;-73
2023/04/16 00:26:01;;;;;;;6.40;5.45;;;;;;;3.34;100.00;97344.63;1709762;75;852018;-74
2023/04/16 00:28:34;;;;;;;5.40;4.90;;;;;;;3.42;100.00;97344.00;1698792;75;953507;-72
2023/04/16 00:31:04;;;;;;;5.50;4.50;;;;;;;3.52;100.00;97338.69;1707904;75;1012373;-71
2023/04/16 00:33:34;;;;;;;4.10;3.70;;;;;;;3.61;100.00;97353.06;1702868;75;746629;-72
2023/04/16 00:36:07;;;;;;;3.05;2.60;;;;;;;3.67;100.00;97350.53;1711869;75;672995;-70
2023/04/16 00:38:37;;;;;;;3.90;3.50;;;;;;;3.58;100.00;97353.16;1702289;75;770989;-70
2023/04/16 00:41:07;;;;;;;4.10;3.70;;;;;;;3.57;100.00;97354.38;1700160;75;1726223;-73
2023/04/16 00:43:40;;;;;;;4.50;4.10;;;;;;;3.48;100.00;97340.72;1699983;75;950684;-72
2023/04/16 00:46:12;;;;;;;5.50;4.90;;;;;;;3.44;100.00;97348.97;1686290;75;2829543;-70
2023/04/16 00:48:43;;;;;;;4.80;4.30;;;;;;;3.49;100.00;97353.06;1676337;75;2926615;-74
2023/04/16 00:51:14;;;;;;;3.70;3.40;;;;;;;3.71;100.00;97356.63;1709723;75;849015;-70
2023/04/16 00:53:45;;;;;;;2.40;2.20;;;;;;;3.69;100.00;97355.53;1673757;75;3162743;-71
2023/04/16 00:56:16;;;;;;;2.10;1.90;;;;;;;3.78;100.00;97353.66;1642795;75;6500213;-72
2023/04/16 00:58:49;;;;;;;1.90;1.70;;;;;;;3.80;100.00;97351.28;1702536;75;735408;-70
2023/04/16 01:01:19;;;;;;;1.85;1.65;;;;;;;3.66;100.00;97357.16;1712032;75;672730;-71
2023/04/16 01:03:51;;;;;;;2.55;2.10;;;;;;;3.60;100.00;97362.34;1703903;75;746729;-71
2023/04/16 01:06:22;;;;;;;2.60;2.00;;;;;;;3.67;100.00;97355.97;1712487;75;687067;-73
2023/04/16 01:08:52;;;;;;;2.30;1.80;;;;;;;3.71;100.00;97367.44;1702514;75;758416;-70
2023/04/16 01:11:22;;;;;;;4.00;3.50;;;;;;;3.41;100.00;97361.41;1631454;75;7534569;-73
2023/04/16 01:13:55;;;;;;;4.95;4.50;;;;;;;3.15;100.00;97365.31;1679068;75;2768929;-72
2023/04/16 01:16:26;;;;;;;4.50;4.10;;;;;;;3.25;100.00;97375.06;1709055;75;964923;-70
2023/04/16 01:18:56;;;;;;;5.30;4.80;;;;;;;3.11;100.00;97370.09;1703645;75;746545;-70
2023/04/16 01:21:29;;;;;;;5.65;5.10;;;;;;;3.00;100.00;97375.81;1698247;75;1851571;-70
2023/04/16 01:23:59;;;;;;;4.60;4.20;;;;;;;3.19;100.00;97380.25;1701785;75;839801;-71
2023/04/16 01:26:29;;;;;;;4.00;3.65;;;;;;;3.30;100.00;97374.53;1711693;75;681808;-72
2023/04/16 01:29:01;;;;;;;3.75;3.40;;;;;;;3.47;100.00;97382.53;1702704;75;737819;-71
2023/04/16 01:31:32;;;;;;;2.70;2.50;;;;;;;3.43;100.00;97377.22;1711905;75;696353;-69
2023/04/16 01:34:02;;;;;;;1.95;1.85;;;;;;;3.51;100.00;97386.66;1703204;75;733045;-71
2023/04/16 01:36:35;;;;;;;2.45;1.90;;;;;;;3.45;100.00;97382.19;1712260;75;674546;-71
2023/04/16 01:39:05;;;;;;;2.25;2.05;;;;;;;3.46;100.00;97381.75;1702004;75;802837;-70
2023/04/16 01:41:35;;;;;;;2.90;2.10;;;;;;;3.44;100.00;97381.44;1698364;75;1774231;-71
2023/04/16 01:44:06;;;;;;;2.10;1.90;;;;;;;3.52;100.00;97380.03;1699549;75;994834;-69
2023/04/16 01:46:37;;;;;;;1.70;1.60;;;;;;;3.56;100.00;97380.69;1711680;75;728018;-72
2023/04/16 01:49:08;;;;;;;2.10;1.90;;;;;;;3.51;100.00;97388.56;1688896;75;1881708;-72
2023/04/16 01:51:41;;;;;;;1.60;1.50;;;;;;;3.52;100.00;97390.09;1711543;75;690925;-72
2023/04/16 01:54:11;;;;;;;1.60;1.50;;;;;;;3.58;100.00;97401.88;1594062;67;9832253;-75
2023/04/16 01:56:41;;;;;;;1.50;1.40;;;;;;;3.55;100.00;97394.63;1712205;75;678605;-72
2023/04/16 01:59:12;;;;;;;1.70;1.60;;;;;;;3.46;100.00;97392.56;1702099;75;759625;-71
2023/04/16 02:01:42;;;;;;;2.00;1.70;;;;;;;3.52;100.00;97390.84;1710188;75;807547;-70
2023/04/16 02:04:13;;;;;;;1.55;1.45;;;;;;;3.56;100.00;97405.03;1703221;75;739747;-70
2023/04/16 02:06:46;;;;;;;1.30;1.20;;;;;;;3.56;100.00;97396.13;1685328;75;2921760;-70
2023/04/16 02:09:16;;;;;;;1.50;1.40;;;;;;;3.54;100.00;97396.59;1688523;75;1933878;-72
2023/04/16 02:11:47;;;;;;;1.30;1.20;;;;;;;3.54;100.00;97395.84;1708942;75;901626;-71
2023/04/16 02:14:17;;;;;;;2.95;1.90;;;;;;;3.48;100.00;97398.31;1702787;75;726426;-72
2023/04/16 02:16:47;;;;;;;1.50;1.40;;;;;;;3.51;100.00;97396.69;1709215;75;906374;-71
2023/04/16 02:19:17;;;;;;;1.55;1.45;;;;;;;3.47;100.00;97396.06;1632566;75;6631879;-70
2023/04/16 02:21:50;;;;;;;1.60;1.40;;;;;;;3.46;100.00;97400.69;1712153;75;678738;-70
2023/04/16 02:24:21;;;;;;;1.40;1.30;;;;;;;3.45;100.00;97404.59;1687169;75;1983798;-70
2023/04/16 02:26:51;;;;;;;2.05;1.80;;;;;;;3.33;100.00;97400.72;1711578;75;677531;-69
2023/04/16 02:29:21;;;;;;;2.95;2.60;;;;;;;3.16;100.00;97400.06;1702751;75;741854;-72
2023/04/16 02:31:51;;;;;;;4.80;4.30;;;;;;;3.01;100.00;97404.38;1711072;75;711383;-72
2023/04/16 02:34:22;;;;;;;4.05;3.65;;;;;;;3.08;100.00;97400.69;1689015;75;1795702;-71
2023/04/16 02:36:54;;;;;;;4.00;3.60;;;;;;;3.24;100.00;97406.00;1710559;75;739155;-69
2023/04/16 02:39:25;;;;;;;3.25;2.95;;;;;;;3.24;100.00;97407.94;1690455;75;1732070;-73
2023/04/16 02:41:55;;;;;;;2.80;2.50;;;;;;;3.28;100.00;97412.06;1712215;75;671170;-72
2023/04/16 02:44:26;;;;;;;2.40;2.20;;;;;;;3.24;100.00;97406.00;1703462;75;744078;-72
2023/04/16 02:46:56;;;;;;;2.10;1.90;;;;;;;3.27;100.00;97407.88;1711859;75;681388;-70
2023/04/16 02:49:28;;;;;;;1.65;1.55;;;;;;;3.30;100.00;97411.66;1702940;75;759281;-74
2023/04/16 02:52:00;;;;;;;1.45;1.35;;;;;;;3.27;100.00;97409.78;1712156;75;675879;-72
2023/04/16 02:54:31;;;;;;;1.30;1.20;;;;;;;3.29;100.00;97407.41;1676758;75;2911980;-73
2023/04/16 02:57:01;;;;;;;1.20;1.10;;;;;;;3.25;100.00;97412.94;1710659;75;776995;-69
2023/04/16 02:59:31;;;;;;;1.70;1.60;;;;;;;3.25;100.00;97412.16;1703159;75;747413;-70
2023/04/16 03:02:01;;;;;;;1.30;1.20;;;;;;;3.18;100.00;97415.84;1711912;75;683083;-71
2023/04/16 03:04:31;;;;;;;1.80;1.70;;;;;;;3.15;100.00;97425.59;1702888;75;751395;-70
2023/04/16 03:07:04;;;;;;;2.00;1.80;;;;;;;3.19;100.00;97414.66;1676688;75;3687472;-74
2023/04/16 03:09:34;;;;;;;1.90;1.70;;;;;;;3.10;100.00;97422.66;1699847;75;933102;-70
2023/04/16 03:12:05;;;;;;;1.75;1.65;;;;;;;3.05;100.00;97421.22;1698128;75;1893308;-70
2023/04/16 03:14:35;;;;;;;1.85;1.75;;;;;;;3.05;100.00;97421.22;1703406;75;737767;-70
2023/04/16 03:17:05;;;;;;;1.65;1.55;;;;;;;3.18;100.00;97421.28;1712345;75;680992;-73
2023/04/16 03:19:36;;;;;;;1.40;1.30;;;;;;;3.17;100.00;97422.44;1699865;75;927084;-71
2023/04/16 03:22:08;;;;;;;1.30;1.20;;;;;;;3.21;100.00;97420.41;1711951;75;692522;-72
2023/04/16 03:24:39;;;;;;;1.40;1.30;;;;;;;3.14;100.00;97428.72;1689746;75;1845526;-70
2023/04/16 03:27:09;;;;;;;1.20;1.10;;;;;;;3.16;100.00;97435.22;1712717;75;674140;-69
2023/04/16 03:29:40;;;;;;;1.35;1.25;;;;;;;3.18;100.00;97440.19;1620736;75;7660244;-69
2023/04/16 03:32:11;;;;;;;1.30;1.20;;;;;;;3.20;100.00;97441.28;1711959;75;688521;-68
2023/04/16 03:34:41;;;;;;;1.40;1.30;;;;;;;3.09;100.00;97434.66;1703152;75;753274;-71
2023/04/16 03:37:14;;;;;;;1.45;1.35;;;;;;;3.06;100.00;97439.00;1711792;75;683580;-70
2023/04/16 03:39:44;;;;;;;1.50;1.40;;;;;;;3.13;100.00;97438.03;1703241;75;740893;-71
2023/04/16 03:42:15;;;;;;;1.30;1.20;;;;;;;3.13;100.00;97443.44;1711345;75;700591;-74
2023/04/16 03:44:45;;;;;;;1.65;1.55;;;;;;;3.07;100.00;97434.34;1702732;75;746880;-73
2023/04/16 03:47:15;;;;;;;1.40;1.30;;;;;;;3.13;100.00;97438.03;1711817;75;682219;-73
2023/04/16 03:49:45;;;;;;;1.70;1.60;;;;;;;3.11;100.00;97445.81;1702266;75;787132;-74
2023/04/16 03:52:18;;;;;;;1.55;1.45;;;;;;;3.08;100.00;97447.44;1712326;75;690185;-69
2023/04/16 03:54:48;;;;;;;1.40;1.30;;;;;;;3.07;100.00;97447.84;1691123;75;1711309;-73
2023/04/16 03:57:18;;;;;;;1.50;1.40;;;;;;;3.11;100.00;97456.63;1711795;75;682301;-71
2023/04/16 03:59:49;;;;;;;1.40;1.30;;;;;;;3.03;100.00;97458.00;1702733;75;759780;-72
2023/04/16 04:02:21;;;;;;;1.20;1.10;;;;;;;3.00;100.00;97465.03;1711594;75;687081;-72
2023/04/16 04:04:51;;;;;;;1.40;1.30;;;;;;;2.98;100.00;97459.28;1702472;75;759906;-71
2023/04/16 04:07:24;;;;;;;1.60;1.45;;;;;;;3.07;100.00;97455.97;1709604;75;847852;-71
2023/04/16 04:09:54;;;;;;;1.40;1.30;;;;;;;2.96;100.00;97456.28;1703053;75;729818;-69
2023/04/16 04:12:24;;;;;;;1.40;1.30;;;;;;;3.02;100.00;97461.91;1712382;75;681441;-71
2023/04/16 04:14:54;;;;;;;1.30;1.20;;;;;;;2.95;100.00;97460.91;1703401;75;749557;-72
2023/04/16 04:17:27;;;;;;;1.25;1.15;;;;;;;3.02;100.00;97461.91;1697945;75;1859984;-70
2023/04/16 04:19:57;;;;;;;1.40;1.30;;;;;;;2.99;100.00;97463.53;1701449;75;906683;-70
2023/04/16 04:22:30;;;;;;;1.40;1.30;;;;;;;2.99;100.00;97469.69;1712614;75;673727;-71
2023/04/16 04:25:02;;;;;;;1.10;1.00;;;;;;;2.88;100.00;97468.47;1703401;75;739365;-69
2023/04/16 04:27:32;;;;;;;1.40;1.30;;;;;;;2.90;100.00;97471.50;1711458;75;690314;-70
2023/04/16 04:30:03;;;;;;;1.90;1.65;;;;;;;2.97;100.00;97471.31;1703231;75;741652;-71
2023/04/16 04:32:33;;;;;;;1.20;1.10;;;;;;;2.99;100.00;97472.41;1711429;75;677032;-74
2023/04/16 04:35:05;;;;;;;1.15;1.05;;;;;;;3.00;100.00;97478.56;1606496;75;8739044;-71
2023/04/16 04:37:40;;;;;;;0.90;0.90;;;;;;;2.99;100.00;97477.81;1710480;75;807560;-69
2023/04/16 04:40:12;;;;;;;1.10;1.00;;;;;;;2.98;100.00;97480.94;1688291;75;1924737;-69
2023/04/16 04:42:43;;;;;;;1.30;1.15;;;;;;;2.97;100.00;97490.25;1712081;75;681871;-69
2023/04/16 04:45:14;;;;;;;1.40;1.30;;;;;;;3.04;100.00;97495.44;1703150;75;740500;-70
2023/04/16 04:47:44;;;;;;;1.75;1.50;;;;;;;3.05;100.00;97498.91;1711356;75;680969;-70
2023/04/16 04:50:14;;;;;;;1.60;1.50;;;;;;;3.06;100.00;97498.50;1606995;75;8749189;-70
2023/04/16 04:52:47;;;;;;;1.50;1.40;;;;;;;3.06;100.00;97495.03;1676159;75;3710920;-68
2023/04/16 04:55:18;;;;;;;1.60;1.50;;;;;;;3.08;100.00;97496.13;1701148;75;871856;-69
2023/04/16 04:57:48;;;;;;;1.50;1.40;;;;;;;3.04;100.00;97503.56;1711451;75;682093;-75
2023/04/16 05:00:18;;;;;;;1.15;1.10;;;;;;;3.17;100.00;97503.59;1702774;75;753927;-73
2023/04/16 05:02:49;;;;;;;1.50;1.40;;;;;;;3.23;100.00;97520.81;1699838;75;1714077;-71
2023/04/16 05:05:22;;;;;;;2.00;1.75;;;;;;;3.25;100.00;97513.03;1702597;75;734162;-70
2023/04/16 05:07:55;;;;;;;2.70;2.40;;;;;;;3.26;100.00;97517.25;1698464;75;1822836;-69
2023/04/16 05:10:25;;;;;;;4.00;3.20;;;;;;;3.32;100.00;97522.88;1699407;75;977824;-69
2023/04/16 05:12:55;;;;;;;3.10;2.80;;;;;;;3.39;100.00;97519.97;1711835;75;707044;-70
2023/04/16 05:15:25;;;;;;;2.35;2.15;;;;;;;3.44;100.00;97518.69;1702843;75;734338;-71
2023/04/16 05:17:55;;;;;;;4.65;3.50;;;;;;;3.48;100.00;97519.34;1708658;75;917945;-73
2023/04/16 05:20:26;;;;;;;4.35;3.80;;;;;;;3.54;100.00;97526.50;1702744;75;736578;-69
2023/04/16 05:22:59;;;;;;;3.20;2.90;;;;;;;3.48;100.00;97532.88;1710767;75;788795;-71
2023/04/16 05:25:29;;;;;;;2.45;2.25;;;;;;;3.62;100.00;97530.50;1702757;75;743560;-68
2023/04/16 05:27:59;;;;;;;3.40;2.15;;;;;;;3.70;100.00;97536.47;1709337;75;924640;-72
2023/04/16 05:30:29;;;;;;;2.00;1.60;;;;;;;3.74;100.00;97537.13;1703008;75;753491;-68
2023/04/16 05:32:59;;;;;;;1.75;1.65;;;;;;;3.73;100.00;97540.25;1712332;75;691179;-70
2023/04/16 05:35:30;;;;;;;1.50;1.40;;;;;;;3.83;100.00;97539.19;1701967;75;841242;-72
2023/04/16 05:38:03;;;;;;;1.30;1.20;;;;;;;3.92;100.00;97543.94;1711672;75;684839;-70
2023/04/16 05:40:33;;;;;;;1.30;1.20;;;;;;;4.04;100.00;97540.47;1653865;75;4813854;-69
2023/04/16 05:43:04;;;;;;;1.40;1.30;;;;;;;4.09;100.00;97544.59;1709916;75;843509;-69
2023/04/16 05:45:38;;;;;;;1.45;1.35;;;;;;;4.21;100.00;97533.75;1703246;75;728268;-69
2023/04/16 05:48:10;;;;;;;2.15;1.95;;;;;;;4.27;100.00;97550.22;1711391;75;690920;-69
2023/04/16 05:50:41;;;;;;;2.90;2.05;;;;;;;4.37;100.00;97545.66;1703002;75;735119;-69
2023/04/16 05:53:15;;;;;;;2.10;1.90;;;;;;;4.43;100.00;97549.34;1686431;75;2825499;-71
2023/04/16 05:55:45;;;;;;;2.30;2.10;;;;;;;4.48;100.00;97549.53;1676583;75;2928546;-72
2023/04/16 05:58:15;;;;;;;3.05;2.45;;;;;;;4.49;100.00;97547.56;1697464;75;1911029;-71
2023/04/16 06:00:46;;;;;;;4.65;3.75;;;;;;;4.49;100.00;97550.28;1702458;75;752547;-68
2023/04/16 06:03:16;;;;;;;5.80;5.10;;;;;;;4.36;100.00;97554.97;1711376;75;678268;-71
2023/04/16 06:05:46;;;;;;;5.70;5.10;;;;;;;4.36;100.00;97560.41;1701480;75;836432;-69
2023/04/16 06:08:19;;;;;;;5.40;4.85;;;;;;;4.42;100.00;97561.34;1711493;75;681825;-69
2023/04/16 06:10:50;;;;;;;5.65;5.05;;;;;;;4.41;100.00;97557.88;1702397;75;753365;-71
2023/04/16 06:13:20;;;;;;;5.20;4.70;;;;;;;4.50;100.00;97557.22;1711276;75;676159;-70
2023/04/16 06:15:50;;;;;;;5.20;4.70;;;;;;;4.45;100.00;97558.53;1703013;75;749364;-68
2023/04/16 06:18:22;;;;;;;5.25;4.45;;;;;;;4.67;100.00;97557.84;1711822;75;687959;-69
2023/04/16 06:20:52;;;;;;;16.50;13.50;;;;;;;4.67;100.00;97553.19;1607636;75;8734749;-70
2023/04/16 06:23:26;;;;;;;6.60;5.35;;;;;;;4.88;100.00;97556.34;1712395;75;672130;-70
2023/04/16 06:25:57;;;;;;;4.20;3.75;;;;;;;4.98;100.00;97563.38;1703227;75;743294;-70
2023/04/16 06:28:27;;;;;;;5.30;4.80;;;;;;;4.80;100.00;97566.69;1710514;75;865911;-67
2023/04/16 06:30:58;;;;;;;5.20;4.30;;;;;;;4.91;100.00;97571.75;1688844;75;1885549;-68
2023/04/16 06:33:28;;;;;;;5.10;4.60;;;;;;;4.79;100.00;97578.00;1709645;75;893528;-73
2023/04/16 06:35:58;;;;;;;5.20;4.20;;;;;;;4.93;100.00;97572.09;1701274;75;781804;-71
2023/04/16 06:38:31;;;;;;;4.45;4.05;;;;;;;5.08;100.00;97580.50;1711854;75;681324;-69
2023/04/16 06:41:02;;;;;;;4.20;3.80;;;;;;;5.15;100.00;97574.81;1691271;75;1728819;-71
2023/04/16 06:43:32;;;;;;;4.60;3.90;;;;;;;5.11;100.00;97574.94;1712660;75;680517;-69
2023/04/16 06:46:02;;;;;;;4.40;4.00;;;;;;;5.11;100.00;97583.06;1702707;75;775097;-70
2023/04/16 06:48:33;;;;;;;4.05;3.65;;;;;;;5.21;100.00;97577.72;1709213;75;958945;-68
2023/04/16 06:51:03;;;;;;;4.50;4.10;;;;;;;5.16;100.00;97581.00;1700133;75;957295;-72
2023/04/16 06:53:39;;;;;;;3.70;3.30;;;;;;;5.39;100.00;97583.28;1712284;75;687138;-70
2023/04/16 06:56:10;;;;;;;4.05;3.30;;;;;;;5.47;100.00;97584.53;1703010;75;747207;-68
2023/04/16 06:58:40;;;;;;;3.30;2.80;;;;;;;5.54;100.00;97584.28;1674013;75;3857310;-71
2023/04/16 07:01:11;;;;;;;3.75;3.40;;;;;;;5.63;100.00;97585.53;1702509;75;746857;-71
2023/04/16 07:03:41;;;;;;;3.70;3.20;;;;;;;5.71;100.00;97586.78;1711962;75;686878;-70
2023/04/16 07:06:11;;;;;;;3.30;2.90;;;;;;;5.83;100.00;97594.09;1702878;75;752935;-70
2023/04/16 07:08:45;;;;;;;2.80;2.60;;;;;;;6.02;100.00;97594.22;1711858;75;683246;-68
2023/04/16 07:11:16;;;;;;;4.00;3.20;;;;;;;5.96;100.00;97602.97;1700740;75;922110;-71
2023/04/16 07:13:46;;;;;;;4.20;3.20;;;;;;;6.03;100.00;97603.88;1650541;75;5877100;-71
2023/04/16 07:16:16;;;;;;;2.45;2.10;;;;;;;6.36;100.00;97602.19;1703292;75;734091;-69
2023/04/16 07:18:46;;;;;;;2.60;2.40;;;;;;;6.46;100.00;97605.69;1711540;75;699670;-69
2023/04/16 07:21:16;;;;;;;9.30;7.80;;;;;;;6.40;100.00;97602.06;1702593;75;753111;-70
2023/04/16 07:23:49;;;;;;;7.65;6.50;;;;;;;6.35;100.00;97600.69;1601365;75;9958236;-71
2023/04/16 07:26:19;;;;;;;3.75;3.30;;;;;;;6.40;100.00;97607.50;1677863;75;2810735;-71
2023/04/16 07:28:50;;;;;;;3.00;2.70;;;;;;;6.48;100.00;97619.59;1711687;75;698227;-72
2023/04/16 07:31:20;;;;;;;2.80;2.10;;;;;;;6.66;100.00;97616.16;1702533;75;770896;-71
2023/04/16 07:33:51;;;;;;;2.60;2.30;;;;;;;6.85;100.00;97613.50;1711802;75;676228;-72
2023/04/16 07:36:21;;;;;;;2.30;2.10;;;;;;;6.79;100.00;97618.78;1703030;75;734252;-70
2023/04/16 07:38:54;;;;;;;2.35;2.15;;;;;;;6.88;100.00;97626.19;1711610;75;690245;-71
2023/04/16 07:41:24;;;;;;;3.95;3.15;;;;;;;7.00;100.00;97626.06;1702820;75;738521;-70
2023/04/16 07:43:54;;;;;;;3.40;3.10;;;;;;;6.92;100.00;97626.81;1698451;75;1763269;-70
2023/04/16 07:46:24;;;;;;;3.25;2.70;;;;;;;7.20;100.00;97622.91;1676658;75;2852391;-70
2023/04/16 07:48:54;;;;;;;3.50;3.20;;;;;;;7.15;100.00;97631.66;1685934;75;2886836;-72
2023/04/16 07:51:25;;;;;;;2.40;2.20;;;;;;;7.36;100.00;97631.97;1703014;75;749299;-71
2023/04/16 07:53:58;;;;;;;3.60;2.80;;;;;;;7.34;100.00;97628.97;1709287;75;945353;-70
2023/04/16 07:56:28;;;;;;;4.30;3.60;;;;;;;7.33;100.00;97643.78;1703358;75;720569;-70
2023/04/16 07:58:59;;;;;;;455.60;392.70;;;;;;;7.37;100.00;97644.38;1698779;75;1818818;-70
2023/04/16 08:01:30;;;;;;;417.60;367.00;;;;;;;7.53;100.00;97633.19;1701734;75;788839;-71
2023/04/16 08:04:00;;;;;;;321.30;286.40;;;;;;;7.75;100.00;97641.19;1711794;75;683304;-71
2023/04/16 08:06:30;;;;;;;379.50;339.95;;;;;;;7.90;100.00;97641.28;1702440;75;761362;-70
2023/04/16 08:09:03;;;;;;;212.20;189.10;;;;;;;7.94;100.00;97641.91;1708411;75;970440;-70
2023/04/16 08:11:34;;;;;;;96.75;86.10;;;;;;;7.90;100.00;97641.28;1702914;75;739680;-72
2023/04/16 08:14:11;;;;;;;42.50;38.10;;;;;;;7.99;100.00;97645.97;1711766;75;676446;-73
2023/04/16 08:16:41;;;;;;;23.40;20.10;;;;;;;7.92;100.00;97652.50;1631872;75;6633055;-73
2023/04/16 08:19:13;;;;;;;9.75;7.70;;;;;;;8.07;100.00;97636.25;1710391;75;829787;-69
2023/04/16 08:21:43;;;;;;;4.10;3.70;;;;;;;8.29;100.00;97644.22;1702589;75;771212;-73
2023/04/16 08:24:19;;;;;;;3.20;2.40;;;;;;;8.37;100.00;97641.91;1712187;75;679633;-70
2023/04/16 08:26:49;;;;;;;2.05;1.70;;;;;;;8.71;100.00;97643.47;1678286;75;2775773;-71
2023/04/16 08:29:20;;;;;;;1.70;1.60;;;;;;;8.74;100.00;97639.78;1711700;75;685670;-73
2023/04/16 08:31:50;;;;;;;3.70;2.45;;;;;;;8.56;100.00;97642.63;1702373;75;736124;-71
2023/04/16 08:34:20;;;;;;;2.50;2.20;;;;;;;8.59;100.00;97645.19;1710615;75;723830;-70
2023/04/16 08:36:50;;;;;;;3.05;2.50;;;;;;;8.86;100.00;97643.53;1701642;75;795352;-72
2023/04/16 08:39:24;;;;;;;4.10;3.20;;;;;;;9.13;100.00;97646.06;1712275;75;682542;-74
2023/04/16 08:41:57;;;;;;;5.85;4.75;;;;;;;9.51;100.00;97646.56;1701283;75;877129;-72
2023/04/16 08:44:33;;;;;;;3.30;2.70;;;;;;;9.49;100.00;97646.25;1710175;75;900178;-75
2023/04/16 08:47:05;;;;;;;3.15;2.40;;;;;;;9.90;100.00;97649.22;1703165;75;743625;-74
2023/04/16 08:49:44;;;;;;;75.40;50.50;;;;;;;9.98;100.00;97651.13;1709660;75;929090;-72
2023/04/16 08:52:22;;;;;;;25.20;17.35;;;;;;;9.82;100.00;97654.31;1608351;75;8674459;-73
2023/04/16 08:55:11;;;;;;;11.80;8.90;;;;;;;10.17;100.00;97657.16;1703863;75;672221;-73
2023/04/16 08:57:49;;;;;;;7.00;5.60;;;;;;;10.09;99.83;97658.75;1708759;75;942500;-76
2023/04/16 09:00:21;;;;;;;5.80;4.60;;;;;;;9.82;100.00;97660.53;1702945;75;753020;-74
2023/04/16 09:02:52;;;;;;;4.20;3.10;;;;;;;10.18;100.00;97657.91;1710443;75;854118;-72
2023/04/16 09:05:24;;;;;;;4.85;3.70;;;;;;;10.19;99.02;97664.88;1688767;75;1817342;-73
2023/04/16 09:07:56;;;;;;;7.60;5.10;;;;;;;10.10;100.00;97663.00;1698601;75;1848221;-77
2023/04/16 09:10:29;;;;;;;6.30;3.90;;;;;;;10.01;98.17;97650.19;1703444;75;749520;-75
2023/04/16 09:13:01;;;;;;;7.60;3.80;;;;;;;10.09;100.00;97661.47;1712548;75;684840;-75
2023/04/16 09:15:31;;;;;;;3.90;2.40;;;;;;;9.94;100.00;97661.50;1702630;75;747667;-73
2023/04/16 09:18:02;;;;;;;2.95;2.10;;;;;;;10.06;100.00;97669.91;1711364;75;747482;-74
2023/04/16 09:20:32;;;;;;;14.10;8.75;;;;;;;9.92;96.02;97660.44;1691389;75;1702182;-74
2023/04/16 09:23:02;;;;;;;9.10;5.90;;;;;;;10.14;98.51;97662.81;1712071;75;679541;-74
2023/04/16 09:25:37;;;;;;;5.15;3.80;;;;;;;10.13;98.76;97656.59;1703318;75;751716;-75
2023/04/16 09:28:07;;;;;;;15.40;9.40;;;;;;;10.29;98.30;97660.84;1711736;75;678238;-73
2023/04/16 09:30:39;;;;;;;9.80;6.20;;;;;;;10.51;96.34;97662.41;1703031;75;750756;-72
2023/04/16 09:33:21;;;;;;;4.10;3.20;;;;;;;10.17;93.87;97664.59;1674954;75;3846851;-73
2023/04/16 09:35:52;;;;;;;6.65;4.00;;;;;;;10.39;95.23;97664.22;1678202;75;2749454;-73
2023/04/16 09:38:25;;;;;;;5.30;4.10;;;;;;;10.13;97.07;97662.06;1708635;75;927018;-74
2023/04/16 09:41:15;;;;;;;4.40;2.70;;;;;;;10.35;100.00;97663.69;1702814;75;754410;-73
2023/04/16 09:43:56;;;;;;;2.80;2.50;;;;;;;10.18;95.92;97658.66;1704429;75;679252;-75
2023/04/16 09:46:31;;;;;;;11.40;8.80;;;;;;;10.44;90.32;97658.84;1712252;75;673672;-74
2023/04/16 09:49:07;;;;;;;5.00;3.95;;;;;;;10.49;91.54;97662.16;1703358;75;733971;-72
2023/04/16 09:51:40;;;;;;;14.55;11.10;;;;;;;10.73;91.99;97664.75;1703640;75;688677;-71
2023/04/16 09:54:11;;;;;;;24.50;19.80;;;;;;;10.41;88.54;97659.03;1711361;75;678645;-73
2023/04/16 09:56:47;;;;;;;18.50;14.00;;;;;;;10.87;88.75;97663.91;1702465;75;711930;-71
2023/04/16 09:59:21;;;;;;;11.20;6.20;;;;;;;10.33;86.90;97663.38;1710758;75;682729;-71
2023/04/16 10:01:52;;;;;;;41.60;32.30;;;;;;;10.98;86.17;97663.31;1703545;75;676848;-72
2023/04/16 10:04:22;;;;;;;22.40;17.10;;;;;;;11.19;84.20;97653.13;1711413;75;675214;-72
2023/04/16 10:07:07;;;;;;;17.00;14.50;;;;;;;11.49;85.79;97651.72;1702977;75;677374;-71
2023/04/16 10:09:41;;;;;;;10.00;7.30;;;;;;;11.62;84.54;97651.38;1702762;75;705974;-72
2023/04/16 10:12:14;;;;;;;4.40;3.40;;;;;;;11.79;81.50;97659.78;1710811;75;678375;-73
2023/04/16 10:14:45;;;;;;;4.55;2.75;;;;;;;11.90;79.89;97659.16;1703274;75;678087;-74
2023/04/16 10:17:16;;;;;;;2.60;1.90;;;;;;;12.04;78.21;97654.78;1711160;75;672754;-76
2023/04/16 10:19:46;;;;;;;1.90;1.60;;;;;;;11.58;76.96;97650.09;1700103;75;962612;-71
2023/04/16 10:22:22;;;;;;;2.80;1.80;;;;;;;11.21;83.58;97650.69;1711417;75;688391;-72
2023/04/16 10:24:54;;;;;;;2.00;1.60;;;;;;;11.88;79.29;97642.41;1703069;75;694820;-72
2023/04/16 10:27:28;;;;;;;2.30;1.50;;;;;;;12.58;79.85;97635.75;1711589;75;680020;-74
2023/04/16 10:29:59;;;;;;;1.95;1.55;;;;;;;12.56;72.02;97641.72;1703408;75;677233;-75
2023/04/16 10:32:31;;;;;;;1.30;1.10;;;;;;;12.66;70.30;97628.56;1711307;75;678808;-77
2023/04/16 10:35:01;;;;;;;1.20;1.10;;;;;;;12.65;70.62;97627.06;1703713;75;674970;-74
2023/04/16 10:37:35;;;;;;;1.50;1.20;;;;;;;12.93;73.69;97629.19;1711276;75;696124;-73
2023/04/16 10:40:23;;;;;;;1.40;1.00;;;;;;;12.94;72.03;97627.94;1702811;75;753858;-73
2023/04/16 10:43:03;;;;;;;2.10;1.30;;;;;;;11.74;71.15;97641.28;1703339;75;682043;-76
2023/04/16 10:45:34;;;;;;;1.70;1.30;;;;;;;11.80;71.88;97633.84;1711935;75;676776;-73
2023/04/16 10:48:10;;;;;;;1.50;1.10;;;;;;;12.55;70.02;97629.25;1703261;75;677400;-72
2023/04/16 10:50:41;;;;;;;1.30;1.00;;;;;;;12.89;68.11;97625.91;1706758;75;682412;-74
2023/04/16 10:53:30;;;;;;;1.40;1.10;;;;;;;12.74;65.84;97621.34;1711150;75;677091;-72
2023/04/16 10:56:16;;;;;;;1.60;1.05;;;;;;;13.11;66.69;97620.53;1702654;75;687136;-73
2023/04/16 10:58:48;;;;;;;0.90;0.70;;;;;;;13.09;67.59;97614.03;1703425;75;677065;-74
2023/04/16 11:01:19;;;;;;;0.50;0.50;;;;;;;13.45;68.11;97620.69;1711727;75;677375;-75
2023/04/16 11:03:50;;;;;;;0.40;0.40;;;;;;;13.47;66.13;97622.91;1703770;75;682338;-74
2023/04/16 11:06:27;;;;;;;0.40;0.40;;;;;;;13.25;67.00;97624.31;1712498;75;677654;-74
2023/04/16 11:08:57;;;;;;;;;;;;;;;13.30;67.69;97625.63;1703883;75;689045;-73
2023/04/16 11:11:27;;;;;;;1.95;1.45;;;;;;;12.20;72.98;97626.00;1711857;75;694768;-73
2023/04/16 11:14:03;;;;;;;1.40;1.10;;;;;;;11.58;74.73;97631.63;1703638;75;681121;-73
2023/04/16 11:16:35;;;;;;;1.05;0.85;;;;;;;12.57;75.62;97626.00;1712495;75;678224;-73
2023/04/16 11:19:05;;;;;;;0.90;0.70;;;;;;;12.65;73.72;97626.28;1689822;75;1869913;-72
2023/04/16 11:21:38;;;;;;;3.05;2.25;;;;;;;12.14;77.89;97623.94;1712296;75;676778;-72
2023/04/16 11:24:08;;;;;;;2.10;1.40;;;;;;;12.09;77.40;97621.91;1676219;75;2962116;-74
2023/04/16 11:26:38;;;;;;;2.50;0.90;;;;;;;12.29;75.14;97623.81;1699132;75;1776798;-73
2023/04/16 11:29:17;;;;;;;1.00;0.90;;;;;;;12.87;77.62;97620.16;1678246;75;2811526;-71
2023/04/16 11:31:53;;;;;;;3.90;2.80;;;;;;;12.86;81.39;97610.44;1691716;75;1755372;-74
2023/04/16 11:34:24;;;;;;;6.80;4.60;;;;;;;13.32;75.48;97617.63;1709566;75;901348;-72
2023/04/16 11:36:55;;;;;;;4.10;3.00;;;;;;;13.39;69.77;97601.41;1702779;75;804167;-74
2023/04/16 11:39:25;;;;;;;2.10;1.65;;;;;;;13.57;67.23;97610.47;1699249;75;1766926;-76
2023/04/16 11:41:56;;;;;;;1.20;0.80;;;;;;;13.76;67.58;97606.00;1703671;75;675274;-76